Terminal Aerodrome Forecast
Issued by NWS

Home | Current Version | Previous Version | Text Only | Print | Product List | Glossary On
Versions: 1 2 3 4 5 6 7 8 9 10 11 12 13 14 15 16 17 18 19 20
000
FTUS45 KRIW 241427 AAA
TAFBPI
TAF AMD
KBPI 241427Z 2414/2512 VRB05KT P6SM VCSH OVC050
     FM241600 03008KT 3SM -SN OVC012
     FM242300 10010KT 6SM -SN OVC018
     FM250200 VRB05KT P6SM VCSH OVC025=

USA.gov is the U.S. government's official web portal to all federal, state and local government web resources and services.